createdAt,value
2018-12-27T00:00:24.176Z,2.70
2018-12-27T00:02:55.035Z,2.60
2018-12-27T00:05:25.389Z,2.90
2018-12-27T00:07:55.560Z,3.00
2018-12-27T00:10:25.959Z,3.50
2018-12-27T00:12:56.623Z,3.10
2018-12-27T00:15:26.906Z,3.10
2018-12-27T00:17:57.516Z,3.20
2018-12-27T00:20:27.660Z,3.00
2018-12-27T00:22:58.468Z,3.10
2018-12-27T00:25:28.790Z,3.40
2018-12-27T00:27:59.429Z,3.40
2018-12-27T00:30:30.075Z,3.20
2018-12-27T00:33:03.206Z,3.50
2018-12-27T00:35:33.024Z,3.50
2018-12-27T00:38:03.341Z,3.50
2018-12-27T00:40:33.526Z,3.50
2018-12-27T00:43:03.759Z,3.50
2018-12-27T00:45:34.353Z,3.40
2018-12-27T00:48:04.685Z,3.50
2018-12-27T00:50:35.830Z,3.90
2018-12-27T00:53:06.215Z,3.40
2018-12-27T00:55:36.531Z,3.00
2018-12-27T01:00:36.351Z,6.30
2018-12-27T01:03:11.163Z,3.00
2018-12-27T01:05:39.336Z,3.50
2018-12-27T01:08:09.762Z,3.90
2018-12-27T01:10:40.424Z,3.20
2018-12-27T01:18:10.179Z,3.60
2018-12-27T01:20:40.334Z,3.50
2018-12-27T01:23:10.831Z,3.50
2018-12-27T01:25:41.127Z,3.70
2018-12-27T01:28:11.307Z,6.10
2018-12-27T01:30:42.237Z,3.40
2018-12-27T01:33:18.727Z,3.70
2018-12-27T01:35:44.783Z,3.60
2018-12-27T01:38:15.022Z,3.30
2018-12-27T01:40:45.269Z,3.40
2018-12-27T01:43:16.183Z,2.90
2018-12-27T01:45:58.026Z,3.20
2018-12-27T01:50:58.341Z,3.00
2018-12-27T01:53:28.543Z,2.90
2018-12-27T01:55:59.625Z,2.80
2018-12-27T01:58:29.819Z,2.90
2018-12-27T02:01:00.151Z,2.90
2018-12-27T02:03:30.508Z,3.00
2018-12-27T02:06:01.211Z,2.80
2018-12-27T02:08:31.495Z,2.90
2018-12-27T02:11:01.773Z,2.90
2018-12-27T02:13:33.950Z,3.00
2018-12-27T02:16:04.327Z,2.90
2018-12-27T02:18:34.947Z,4.00
2018-12-27T02:21:05.162Z,3.10
2018-12-27T02:23:36.219Z,3.40
2018-12-27T02:26:06.495Z,2.90
2018-12-27T02:28:36.799Z,3.20
2018-12-27T02:31:06.967Z,2.80
2018-12-27T02:33:37.188Z,2.90
2018-12-27T02:36:07.821Z,2.90
2018-12-27T02:38:38.288Z,3.20
2018-12-27T02:41:10.235Z,3.20
2018-12-27T02:43:40.733Z,3.10
2018-12-27T02:46:10.968Z,3.20
2018-12-27T02:48:41.270Z,3.30
2018-12-27T02:51:11.441Z,3.20
2018-12-27T02:53:42.131Z,3.20
2018-12-27T02:56:13.911Z,3.10
2018-12-27T02:58:44.568Z,3.10
2018-12-27T03:01:14.872Z,3.00
2018-12-27T03:03:45.494Z,3.00
2018-12-27T03:06:15.656Z,2.90
2018-12-27T03:08:46.747Z,2.90
2018-12-27T03:11:17.125Z,2.80
2018-12-27T03:13:47.758Z,5.80
2018-12-27T03:16:17.930Z,2.70
2018-12-27T03:18:48.638Z,2.90
2018-12-27T03:21:18.940Z,3.00
2018-12-27T03:23:49.433Z,2.90
2018-12-27T03:26:19.629Z,2.90
2018-12-27T03:28:49.921Z,3.00
2018-12-27T03:31:20.081Z,2.80
2018-12-27T03:33:52.753Z,2.80
2018-12-27T03:36:22.543Z,2.70
2018-12-27T03:38:52.706Z,2.50
2018-12-27T03:41:23.433Z,2.60
2018-12-27T03:43:53.708Z,5.10
2018-12-27T03:46:24.110Z,2.50
2018-12-27T03:48:54.422Z,2.60
2018-12-27T03:51:24.683Z,2.40
2018-12-27T03:53:55.296Z,2.80
2018-12-27T03:56:25.528Z,2.70
2018-12-27T03:58:56.075Z,3.00
2018-12-27T04:01:26.370Z,3.00
2018-12-27T04:04:01.299Z,3.30
2018-12-27T04:11:27.942Z,2.90
2018-12-27T04:13:59.380Z,3.30
2018-12-27T04:16:29.732Z,2.90
2018-12-27T04:18:59.824Z,2.90
2018-12-27T04:21:30.000Z,3.00
2018-12-27T04:24:00.527Z,3.10
2018-12-27T04:26:30.649Z,3.30
2018-12-27T04:29:01.075Z,3.30
2018-12-27T04:31:31.611Z,3.40
2018-12-27T04:34:09.503Z,3.30
2018-12-27T04:36:35.217Z,3.60
2018-12-27T04:39:07.734Z,3.60
2018-12-27T04:41:38.271Z,3.50
2018-12-27T04:44:08.316Z,3.50
2018-12-27T04:49:08.267Z,3.60
2018-12-27T04:51:38.428Z,3.60
2018-12-27T04:54:08.852Z,3.60
2018-12-27T04:56:38.891Z,3.60
2018-12-27T04:59:09.134Z,3.50
2018-12-27T05:01:39.224Z,3.60
2018-12-27T05:04:17.820Z,3.60
2018-12-27T05:06:41.872Z,3.50
2018-12-27T05:09:12.389Z,5.20
2018-12-27T05:11:42.581Z,3.70
2018-12-27T05:14:12.990Z,3.50
2018-12-27T05:16:44.110Z,3.50
2018-12-27T05:19:14.288Z,3.20
2018-12-27T05:21:44.715Z,3.00
2018-12-27T05:24:14.881Z,3.00
2018-12-27T05:26:44.918Z,2.90
2018-12-27T05:31:48.037Z,3.00
2018-12-27T05:34:25.978Z,3.10
2018-12-27T05:36:50.335Z,3.60
2018-12-27T05:39:20.544Z,3.10
2018-12-27T05:41:50.631Z,2.90
2018-12-27T05:46:50.481Z,3.30
2018-12-27T05:49:20.582Z,3.50
2018-12-27T05:51:50.605Z,3.50
2018-12-27T05:54:20.916Z,3.50
2018-12-27T05:56:51.053Z,3.90
2018-12-27T05:59:21.392Z,3.50
2018-12-27T06:04:21.221Z,3.20
2018-12-27T06:06:51.380Z,3.70
2018-12-27T06:09:21.544Z,3.30
2018-12-27T06:11:51.978Z,3.30
2018-12-27T06:14:22.078Z,3.30
2018-12-27T06:19:21.872Z,3.20
2018-12-27T06:21:52.302Z,3.20
2018-12-27T06:24:24.870Z,3.10
2018-12-27T06:29:25.108Z,3.60
2018-12-27T06:31:56.286Z,3.10
2018-12-27T06:34:26.836Z,3.10
2018-12-27T06:36:57.485Z,3.20
2018-12-27T06:39:27.755Z,3.20
2018-12-27T06:41:59.424Z,3.20
2018-12-27T06:44:29.758Z,3.00
2018-12-27T06:46:59.858Z,3.20
2018-12-27T06:49:29.980Z,3.00
2018-12-27T06:52:00.908Z,3.20
2018-12-27T06:54:31.048Z,1.50
2018-12-27T06:57:02.487Z,3.20
2018-12-27T06:59:32.618Z,3.70
2018-12-27T07:02:03.247Z,3.40
2018-12-27T07:04:33.326Z,3.40
2018-12-27T07:07:04.013Z,3.50
2018-12-27T07:09:34.224Z,0.90
2018-12-27T07:12:04.792Z,6.20
2018-12-27T07:14:34.969Z,3.10
2018-12-27T07:17:05.556Z,3.50
2018-12-27T07:22:07.258Z,3.20
2018-12-27T07:24:40.495Z,3.40
2018-12-27T07:27:10.974Z,3.40
2018-12-27T07:29:41.103Z,3.30
2018-12-27T07:32:11.486Z,3.20
2018-12-27T07:34:41.507Z,3.10
2018-12-27T07:37:12.014Z,3.30
2018-12-27T07:39:42.617Z,3.20
2018-12-27T07:42:12.720Z,3.40
2018-12-27T07:47:13.011Z,3.50
2018-12-27T07:49:43.092Z,3.50
2018-12-27T07:52:13.116Z,3.70
2018-12-27T07:54:43.390Z,3.30
2018-12-27T07:57:13.579Z,3.60
2018-12-27T08:04:43.696Z,3.70
2018-12-27T08:07:13.732Z,1.40
2018-12-27T08:09:44.144Z,3.50
2018-12-27T08:12:14.235Z,3.70
2018-12-27T08:14:44.787Z,3.50
2018-12-27T08:17:14.915Z,3.70
2018-12-27T08:22:15.373Z,3.80
2018-12-27T08:24:45.798Z,3.80
2018-12-27T08:27:16.084Z,3.80
2018-12-27T08:29:46.268Z,4.20
2018-12-27T08:32:16.472Z,3.80
2018-12-27T08:34:47.247Z,3.80
2018-12-27T08:37:17.446Z,3.80
2018-12-27T08:39:48.637Z,3.80
2018-12-27T08:42:18.761Z,3.50
2018-12-27T08:44:48.893Z,1.60
2018-12-27T08:50:09.392Z,6.30
2018-12-27T08:52:39.550Z,3.90
2018-12-27T08:57:39.448Z,3.80
2018-12-27T09:00:09.986Z,4.00
2018-12-27T09:02:40.394Z,4.10
2018-12-27T09:05:10.543Z,4.00
2018-12-27T09:07:41.175Z,4.30
2018-12-27T09:10:11.274Z,4.10
2018-12-27T09:12:41.465Z,4.60
2018-12-27T09:15:11.610Z,4.20
2018-12-27T09:17:41.794Z,4.60
2018-12-27T09:20:12.129Z,4.20
2018-12-27T09:25:11.824Z,4.30
2018-12-27T09:30:14.720Z,4.40
2018-12-27T09:32:45.223Z,4.20
2018-12-27T09:37:45.359Z,4.40
2018-12-27T09:40:15.467Z,4.40
2018-12-27T09:42:45.735Z,4.30
2018-12-27T09:45:15.863Z,4.40
2018-12-27T09:47:46.214Z,4.40
2018-12-27T09:50:16.393Z,4.60
2018-12-27T09:55:17.222Z,4.20
2018-12-27T09:57:47.755Z,4.40
2018-12-27T10:00:17.987Z,4.40
2018-12-27T10:05:18.843Z,4.60
2018-12-27T10:07:49.195Z,4.20
2018-12-27T10:10:19.579Z,4.30
2018-12-27T10:15:19.558Z,4.20
2018-12-27T10:17:50.152Z,4.10
2018-12-27T10:20:20.398Z,4.10
2018-12-27T10:22:51.619Z,4.10
2018-12-27T10:25:21.694Z,4.00
2018-12-27T10:30:22.293Z,4.70
2018-12-27T10:32:52.799Z,4.70
2018-12-27T10:35:23.113Z,4.90
2018-12-27T10:37:53.298Z,4.80
2018-12-27T10:42:53.259Z,5.00
2018-12-27T10:45:23.379Z,5.30
2018-12-27T10:47:53.575Z,5.40
2018-12-27T10:50:24.173Z,5.40
2018-12-27T10:52:54.339Z,6.00
2018-12-27T10:55:25.083Z,5.40
2018-12-27T10:57:57.111Z,6.00
2018-12-27T11:00:27.271Z,5.50
2018-12-27T11:10:26.594Z,5.60
2018-12-27T11:12:56.781Z,5.10
2018-12-27T11:15:27.284Z,5.20
2018-12-27T11:17:57.494Z,4.70
2018-12-27T11:20:27.915Z,5.10
2018-12-27T11:22:58.178Z,4.80
2018-12-27T11:25:28.405Z,5.10
2018-12-27T11:27:58.577Z,4.60
2018-12-27T11:30:28.680Z,4.70
2018-12-27T11:32:59.550Z,4.60
2018-12-27T11:35:29.699Z,4.80
2018-12-27T11:37:59.781Z,5.10
2018-12-27T11:40:29.960Z,7.00
2018-12-27T11:43:00.635Z,5.30
2018-12-27T11:50:30.822Z,5.10
2018-12-27T11:53:01.340Z,5.30
2018-12-27T11:55:31.490Z,5.50
2018-12-27T11:58:02.076Z,5.60
2018-12-27T12:00:32.193Z,6.40
2018-12-27T12:03:02.495Z,5.60
2018-12-27T12:08:02.110Z,5.30
2018-12-27T12:10:32.366Z,5.70
2018-12-27T12:13:02.586Z,5.80
2018-12-27T12:15:32.857Z,5.80
2018-12-27T12:18:02.991Z,5.90
2018-12-27T12:20:33.840Z,5.90
2018-12-27T12:23:04.092Z,6.00
2018-12-27T12:28:04.033Z,6.30
2018-12-27T12:30:34.126Z,6.00
2018-12-27T12:33:05.546Z,6.10
2018-12-27T12:35:35.776Z,6.10
2018-12-27T12:38:07.168Z,5.90
2018-12-27T12:40:37.348Z,6.00
2018-12-27T12:45:49.476Z,5.90
2018-12-27T12:50:49.575Z,6.10
2018-12-27T12:53:19.769Z,6.10
2018-12-27T12:55:50.011Z,6.10
2018-12-27T12:58:22.046Z,6.20
2018-12-27T13:03:23.957Z,6.20
2018-12-27T13:05:54.410Z,6.40
2018-12-27T13:08:24.624Z,6.30
2018-12-27T13:10:55.241Z,6.40
2018-12-27T13:13:25.276Z,6.40
2018-12-27T13:18:26.378Z,6.40
2018-12-27T13:20:56.690Z,6.40
2018-12-27T13:23:26.954Z,6.30
2018-12-27T13:25:57.208Z,6.30
2018-12-27T13:28:28.458Z,6.30
2018-12-27T13:31:01.798Z,6.20
2018-12-27T13:33:32.215Z,6.10
2018-12-27T13:38:32.365Z,6.10
2018-12-27T13:41:02.648Z,6.20
2018-12-27T13:43:33.255Z,6.20
2018-12-27T13:46:03.479Z,6.10
2018-12-27T13:48:33.758Z,6.00
2018-12-27T13:51:04.737Z,6.10
2018-12-27T13:53:34.915Z,6.10
2018-12-27T13:56:05.091Z,6.10
2018-12-27T13:58:35.322Z,5.10
2018-12-27T14:01:05.561Z,6.30
2018-12-27T14:06:05.406Z,6.00
2018-12-27T14:08:35.934Z,6.00
2018-12-27T14:11:06.659Z,6.00
2018-12-27T14:13:36.890Z,5.90
2018-12-27T14:16:07.211Z,5.80
2018-12-27T14:18:37.459Z,5.90
2018-12-27T14:23:37.610Z,5.90
2018-12-27T14:31:07.357Z,6.50
2018-12-27T14:33:37.665Z,6.00
2018-12-27T14:36:08.195Z,6.00
2018-12-27T14:38:38.894Z,6.00
2018-12-27T14:41:09.039Z,6.00
2018-12-27T14:43:39.562Z,6.00
2018-12-27T14:46:09.700Z,6.00
2018-12-27T14:48:40.185Z,5.90
2018-12-27T14:53:43.370Z,6.20
2018-12-27T14:56:13.581Z,5.80
2018-12-27T14:58:43.794Z,5.10
2018-12-27T15:01:13.871Z,5.80
2018-12-27T15:03:46.870Z,5.60
2018-12-27T15:11:15.837Z,5.40
2018-12-27T15:13:45.948Z,5.50
2018-12-27T15:18:45.826Z,5.30
2018-12-27T15:21:16.679Z,5.20
2018-12-27T15:23:47.019Z,5.20
2018-12-27T15:26:17.601Z,5.00
2018-12-27T15:28:47.746Z,5.10
2018-12-27T15:31:17.914Z,5.40
2018-12-27T15:33:48.047Z,5.00
2018-12-27T15:38:48.230Z,5.00
2018-12-27T15:41:26.016Z,4.90
2018-12-27T15:43:57.249Z,5.10
2018-12-27T15:46:27.812Z,4.80
2018-12-27T15:48:58.271Z,4.80
2018-12-27T15:53:58.386Z,4.60
2018-12-27T15:56:28.498Z,4.40
2018-12-27T15:59:00.709Z,4.70
2018-12-27T16:01:31.087Z,4.60
2018-12-27T16:04:01.098Z,4.50
2018-12-27T16:06:31.597Z,7.00
2018-12-27T16:09:01.767Z,4.70
2018-12-27T16:11:33.547Z,4.40
2018-12-27T16:14:04.262Z,4.50
2018-12-27T16:16:34.379Z,6.70
2018-12-27T16:19:04.503Z,4.60
2018-12-27T16:24:04.401Z,4.40
2018-12-27T16:26:34.483Z,4.60
2018-12-27T16:29:04.954Z,4.40
2018-12-27T16:31:35.262Z,5.70
2018-12-27T16:36:35.459Z,4.20
2018-12-27T16:39:07.162Z,4.20
2018-12-27T16:41:37.350Z,4.10
2018-12-27T16:46:37.365Z,4.10
2018-12-27T16:49:07.689Z,3.50
2018-12-27T16:51:38.162Z,4.10
2018-12-27T16:54:08.490Z,4.00
2018-12-27T16:56:38.871Z,4.00
2018-12-27T16:59:09.199Z,4.00
2018-12-27T17:01:41.406Z,3.90
2018-12-27T17:04:12.164Z,3.80
2018-12-27T17:06:42.410Z,3.90
2018-12-27T17:09:13.116Z,3.80
2018-12-27T17:11:43.410Z,3.50
2018-12-27T17:14:13.585Z,3.70
2018-12-27T17:16:43.808Z,6.20
2018-12-27T17:24:13.504Z,3.70
2018-12-27T17:26:44.031Z,3.60
2018-12-27T17:31:43.709Z,3.60
2018-12-27T17:34:14.095Z,3.30
2018-12-27T17:36:44.212Z,3.40
2018-12-27T17:39:14.929Z,3.40
2018-12-27T17:41:45.992Z,3.50
2018-12-27T17:44:16.110Z,3.40
2018-12-27T17:49:17.019Z,3.40
2018-12-27T17:51:47.183Z,3.40
2018-12-27T17:54:17.365Z,3.70
2018-12-27T17:56:48.199Z,3.10
2018-12-27T17:59:18.318Z,3.20
2018-12-27T18:01:51.120Z,3.20
2018-12-27T18:04:21.353Z,3.00
2018-12-27T18:06:52.165Z,3.00
2018-12-27T18:09:23.474Z,2.90
2018-12-27T18:11:53.546Z,3.00
2018-12-27T18:14:23.744Z,3.10
2018-12-27T18:16:54.165Z,3.10
2018-12-27T18:19:26.126Z,3.00
2018-12-27T18:21:56.292Z,5.70
2018-12-27T18:24:26.554Z,3.00
2018-12-27T18:26:56.615Z,3.00
2018-12-27T18:29:28.364Z,2.90
2018-12-27T18:34:29.640Z,3.30
2018-12-27T18:39:29.472Z,3.00
2018-12-27T18:42:00.200Z,2.90
2018-12-27T18:44:30.222Z,2.90
2018-12-27T18:47:00.254Z,2.90
2018-12-27T18:49:32.211Z,2.90
2018-12-27T18:52:02.863Z,2.90
2018-12-27T18:54:33.675Z,2.80
2018-12-27T18:57:03.923Z,2.90
2018-12-27T18:59:34.123Z,2.90
2018-12-27T19:02:04.251Z,2.90
2018-12-27T19:04:34.807Z,3.00
2018-12-27T19:07:05.023Z,2.80
2018-12-27T19:09:36.141Z,2.80
2018-12-27T19:12:41.910Z,3.00
2018-12-27T19:15:16.097Z,2.80
2018-12-27T19:17:59.884Z,2.80
2018-12-27T19:20:38.287Z,2.80
2018-12-27T19:23:18.179Z,3.20
2018-12-27T19:25:48.283Z,2.70
2018-12-27T19:28:19.138Z,2.70
2018-12-27T19:30:50.931Z,2.80
2018-12-27T19:33:21.375Z,2.80
2018-12-27T19:35:51.568Z,2.80
2018-12-27T19:38:22.468Z,2.70
2018-12-27T19:40:52.702Z,2.70
2018-12-27T19:43:23.257Z,2.80
2018-12-27T19:45:53.431Z,2.80
2018-12-27T19:48:24.963Z,2.70
2018-12-27T19:50:56.417Z,2.80
2018-12-27T19:53:27.657Z,2.80
2018-12-27T19:55:57.903Z,2.70
2018-12-27T19:58:28.449Z,2.80
2018-12-27T20:00:58.867Z,2.80
2018-12-27T20:03:29.595Z,2.80
2018-12-27T20:05:59.848Z,2.80
2018-12-27T20:08:30.787Z,2.50
2018-12-27T20:11:00.930Z,2.80
2018-12-27T20:13:32.216Z,2.80
2018-12-27T20:16:02.536Z,2.80
2018-12-27T20:18:33.159Z,2.80
2018-12-27T20:21:03.354Z,2.80
2018-12-27T20:23:33.606Z,2.80
2018-12-27T20:26:03.778Z,2.80
2018-12-27T20:28:33.879Z,2.80
2018-12-27T20:31:04.045Z,2.80
2018-12-27T20:33:35.607Z,3.20
2018-12-27T20:36:06.367Z,2.80
2018-12-27T20:38:36.555Z,2.80
2018-12-27T20:41:06.986Z,3.60
2018-12-27T20:43:37.236Z,2.90
2018-12-27T20:46:08.164Z,2.90
2018-12-27T20:48:38.569Z,3.00
2018-12-27T20:51:08.979Z,3.00
2018-12-27T20:53:39.217Z,3.00
2018-12-27T20:56:10.798Z,3.00
2018-12-27T20:58:41.307Z,3.10
2018-12-27T21:01:12.292Z,3.10
2018-12-27T21:03:47.155Z,3.30
2018-12-27T21:06:18.427Z,3.30
2018-12-27T21:08:48.747Z,3.30
2018-12-27T21:11:19.269Z,3.40
2018-12-27T21:13:49.520Z,3.50
2018-12-27T21:16:20.617Z,3.50
2018-12-27T21:18:51.014Z,3.50
2018-12-27T21:21:21.229Z,3.50
2018-12-27T21:23:51.435Z,3.80
2018-12-27T21:26:21.824Z,3.90
2018-12-27T21:28:53.296Z,3.50
2018-12-27T21:31:23.793Z,3.50
2018-12-27T21:33:54.049Z,3.50
2018-12-27T21:36:24.267Z,4.00
2018-12-27T21:38:54.892Z,3.60
2018-12-27T21:41:27.482Z,1.30
2018-12-27T21:43:58.210Z,3.70
2018-12-27T21:46:28.546Z,3.60
2018-12-27T21:48:59.028Z,3.60
2018-12-27T21:51:29.141Z,3.50
2018-12-27T21:53:59.880Z,3.50
2018-12-27T21:56:30.073Z,4.20
2018-12-27T21:59:00.162Z,3.30
2018-12-27T22:01:30.386Z,3.30
2018-12-27T22:04:00.591Z,3.20
2018-12-27T22:06:31.185Z,3.20
2018-12-27T22:09:01.462Z,3.10
2018-12-27T22:11:33.215Z,3.10
2018-12-27T22:14:03.529Z,3.10
2018-12-27T22:16:33.812Z,3.10
2018-12-27T22:19:04.017Z,3.10
2018-12-27T22:21:34.265Z,3.00
2018-12-27T22:24:06.225Z,3.10
2018-12-27T22:26:37.679Z,3.10
2018-12-27T22:29:08.407Z,3.20
2018-12-27T22:31:38.569Z,3.70
2018-12-27T22:34:09.310Z,3.40
2018-12-27T22:36:39.892Z,3.40
2018-12-27T22:39:10.182Z,3.50
2018-12-27T22:41:41.702Z,3.50
2018-12-27T22:44:11.828Z,3.50
2018-12-27T22:46:42.255Z,3.50
2018-12-27T22:49:12.374Z,3.60
2018-12-27T22:51:42.626Z,3.60
2018-12-27T22:54:12.902Z,3.70
2018-12-27T22:56:44.218Z,3.70
2018-12-27T22:59:14.468Z,3.80
2018-12-27T23:01:45.083Z,3.80
2018-12-27T23:04:15.300Z,3.80
2018-12-27T23:06:45.488Z,3.80
2018-12-27T23:09:16.369Z,3.80
2018-12-27T23:11:46.610Z,3.80
2018-12-27T23:14:17.128Z,3.80
2018-12-27T23:16:47.351Z,3.80
2018-12-27T23:19:17.787Z,3.90
2018-12-27T23:21:48.098Z,3.90
2018-12-27T23:24:18.707Z,4.00
2018-12-27T23:26:49.134Z,4.00
2018-12-27T23:29:19.821Z,3.80
2018-12-27T23:31:52.441Z,3.80
2018-12-27T23:34:22.745Z,3.60
2018-12-27T23:36:53.456Z,3.70
2018-12-27T23:39:23.727Z,3.70
2018-12-27T23:41:54.284Z,3.70
2018-12-27T23:44:24.454Z,3.80
2018-12-27T23:46:54.971Z,3.80
2018-12-27T23:49:25.079Z,3.80
2018-12-27T23:51:55.314Z,3.80
2018-12-27T23:54:25.862Z,3.70
2018-12-27T23:56:56.061Z,3.70
2018-12-27T23:59:26.151Z,3.70
